createdAt,value
2023-03-02T00:00:14.712Z,64.80
2023-03-02T00:03:01.035Z,62.83
2023-03-02T00:05:49.755Z,60.28
2023-03-02T00:08:36.079Z,62.63
2023-03-02T00:11:21.709Z,61.42
2023-03-02T00:14:07.516Z,60.50
2023-03-02T00:16:52.843Z,61.85
2023-03-02T00:19:39.028Z,61.60
2023-03-02T00:22:24.687Z,57.63
2023-03-02T00:25:11.220Z,60.15
2023-03-02T00:27:56.733Z,60.15
2023-03-02T00:30:42.516Z,61.10
2023-03-02T00:33:28.146Z,56.25
2023-03-02T00:36:18.461Z,63.38
2023-03-02T00:39:04.694Z,59.15
2023-03-02T00:41:50.845Z,60.67
2023-03-02T00:44:38.292Z,57.35
2023-03-02T00:47:23.883Z,56.78
2023-03-02T00:50:10.233Z,58.72
2023-03-02T00:52:55.749Z,56.25
2023-03-02T00:55:40.994Z,60.10
2023-03-02T00:58:28.255Z,58.40
2023-03-02T01:01:15.956Z,55.00
2023-03-02T01:04:06.030Z,58.72
2023-03-02T01:06:51.184Z,57.40
2023-03-02T01:09:37.925Z,53.85
2023-03-02T01:12:23.397Z,54.40
2023-03-02T01:15:11.196Z,55.72
2023-03-02T01:17:57.053Z,57.17
2023-03-02T01:20:42.822Z,53.30
2023-03-02T01:23:28.877Z,50.88
2023-03-02T01:26:14.296Z,55.92
2023-03-02T01:29:00.106Z,52.25
2023-03-02T01:31:45.602Z,54.97
2023-03-02T01:34:31.040Z,52.53
2023-03-02T01:37:16.850Z,46.20
2023-03-02T01:40:05.747Z,47.25
2023-03-02T01:42:56.842Z,46.25
2023-03-02T01:46:19.526Z,46.92
2023-03-02T01:49:12.733Z,46.25
2023-03-02T01:52:09.499Z,48.20
2023-03-02T01:54:58.751Z,49.30
2023-03-02T01:57:47.865Z,49.60
2023-03-02T02:00:39.135Z,49.08
2023-03-02T02:03:28.750Z,49.72
2023-03-02T02:06:44.381Z,46.67
2023-03-02T02:09:39.015Z,54.60
2023-03-02T02:12:24.805Z,52.42
2023-03-02T02:15:11.405Z,48.92
2023-03-02T02:17:58.402Z,53.63
2023-03-02T02:20:45.342Z,53.53
2023-03-02T02:23:37.452Z,51.67
2023-03-02T02:26:47.420Z,50.95
2023-03-02T02:29:45.534Z,55.92
2023-03-02T02:32:36.893Z,50.55
2023-03-02T02:35:27.412Z,51.83
2023-03-02T02:38:15.830Z,51.38
2023-03-02T02:41:04.346Z,48.35
2023-03-02T02:43:53.198Z,46.90
2023-03-02T02:46:38.688Z,42.92
2023-03-02T02:49:32.156Z,44.97
2023-03-02T02:52:20.234Z,43.30
2023-03-02T02:55:06.483Z,41.80
2023-03-02T02:57:55.508Z,43.00
2023-03-02T03:00:42.130Z,43.90
2023-03-02T03:03:32.351Z,42.63
2023-03-02T03:06:30.671Z,37.30
2023-03-02T03:09:16.409Z,42.67
2023-03-02T03:12:15.435Z,38.83
2023-03-02T03:15:02.769Z,38.97
2023-03-02T03:17:57.422Z,41.60
2023-03-02T03:20:45.548Z,39.03
2023-03-02T03:23:31.140Z,36.67
2023-03-02T03:26:16.999Z,37.60
2023-03-02T03:29:03.882Z,39.03
2023-03-02T03:31:50.676Z,38.78
2023-03-02T03:34:40.535Z,38.13
2023-03-02T03:37:31.014Z,36.42
2023-03-02T03:40:16.709Z,36.25
2023-03-02T03:43:04.537Z,39.38
2023-03-02T03:45:51.962Z,37.53
2023-03-02T03:48:38.262Z,42.13
2023-03-02T03:51:24.507Z,37.22
2023-03-02T03:54:11.112Z,37.47
2023-03-02T03:57:00.386Z,37.30
2023-03-02T03:59:45.858Z,38.75
2023-03-02T04:02:31.973Z,39.05
2023-03-02T04:05:18.033Z,35.35
2023-03-02T04:08:04.478Z,38.08
2023-03-02T04:10:50.499Z,38.88
2023-03-02T04:13:36.152Z,37.63
2023-03-02T04:16:21.694Z,38.50
2023-03-02T04:19:10.814Z,40.92
2023-03-02T04:22:01.759Z,40.38
2023-03-02T04:24:49.812Z,38.17
2023-03-02T04:27:35.874Z,36.30
2023-03-02T04:30:24.703Z,38.28
2023-03-02T04:33:11.344Z,38.67
2023-03-02T04:35:56.872Z,36.78
2023-03-02T04:38:43.007Z,36.08
2023-03-02T04:41:29.613Z,40.15
2023-03-02T04:44:16.206Z,38.47
2023-03-02T04:47:01.757Z,38.22
2023-03-02T04:49:47.095Z,39.22
2023-03-02T04:52:32.702Z,39.90
2023-03-02T04:55:20.659Z,38.30
2023-03-02T04:58:06.162Z,38.40
2023-03-02T05:00:51.542Z,36.67
2023-03-02T05:03:37.324Z,36.95
2023-03-02T05:06:25.116Z,39.22
2023-03-02T05:09:10.899Z,39.42
2023-03-02T05:11:57.714Z,37.35
2023-03-02T05:14:45.434Z,36.45
2023-03-02T05:17:30.948Z,35.85
2023-03-02T05:20:17.478Z,38.90
2023-03-02T05:23:07.343Z,39.75
2023-03-02T05:25:55.101Z,37.60
2023-03-02T05:28:42.025Z,41.95
2023-03-02T05:31:37.789Z,37.85
2023-03-02T05:34:23.424Z,39.80
2023-03-02T05:37:08.979Z,39.72
2023-03-02T05:39:54.453Z,42.35
2023-03-02T05:42:41.234Z,39.80
2023-03-02T05:45:33.096Z,41.15
2023-03-02T05:48:18.528Z,40.90
2023-03-02T05:51:04.674Z,41.10
2023-03-02T05:53:50.210Z,41.67
2023-03-02T05:56:35.979Z,42.65
2023-03-02T05:59:21.683Z,41.10
2023-03-02T06:02:07.444Z,45.90
2023-03-02T06:04:53.064Z,41.67
2023-03-02T06:07:38.647Z,45.22
2023-03-02T06:10:24.282Z,42.85
2023-03-02T06:13:09.642Z,41.72
2023-03-02T06:15:55.147Z,41.70
2023-03-02T06:18:41.634Z,42.83
2023-03-02T06:21:27.342Z,41.17
2023-03-02T06:24:12.901Z,40.53
2023-03-02T06:26:59.822Z,39.47
2023-03-02T06:29:45.416Z,40.28
2023-03-02T06:32:34.344Z,40.80
2023-03-02T06:35:19.962Z,40.50
2023-03-02T06:38:05.412Z,41.97
2023-03-02T06:40:50.573Z,43.17
2023-03-02T06:43:35.975Z,41.80
2023-03-02T06:46:21.337Z,45.03
2023-03-02T06:49:07.129Z,41.35
2023-03-02T06:51:52.405Z,43.55
2023-03-02T06:54:37.861Z,40.72
2023-03-02T06:57:23.310Z,42.50
2023-03-02T07:00:16.759Z,43.67
2023-03-02T07:03:02.163Z,43.08
2023-03-02T07:05:48.919Z,43.95
2023-03-02T07:08:34.453Z,39.50
2023-03-02T07:11:19.620Z,42.65
2023-03-02T07:14:05.088Z,41.95
2023-03-02T07:16:50.584Z,45.42
2023-03-02T07:19:40.650Z,39.55
2023-03-02T07:22:26.404Z,40.17
2023-03-02T07:25:12.296Z,38.42
2023-03-02T07:27:57.379Z,41.15
2023-03-02T07:30:42.899Z,40.00
2023-03-02T07:33:28.319Z,38.20
2023-03-02T07:36:13.728Z,36.60
2023-03-02T07:38:59.148Z,39.05
2023-03-02T07:41:44.850Z,37.17
2023-03-02T07:44:31.916Z,37.80
2023-03-02T07:47:17.407Z,37.08
2023-03-02T07:50:03.408Z,38.00
2023-03-02T07:52:48.673Z,36.42
2023-03-02T07:55:34.065Z,35.75
2023-03-02T07:58:20.259Z,36.97
2023-03-02T08:01:07.391Z,34.72
2023-03-02T08:03:53.237Z,32.45
2023-03-02T08:06:38.286Z,34.97
2023-03-02T08:09:23.921Z,32.83
2023-03-02T08:12:09.285Z,32.00
2023-03-02T08:14:56.289Z,34.50
2023-03-02T08:17:41.662Z,31.65
2023-03-02T08:20:27.030Z,31.63
2023-03-02T08:23:12.543Z,32.00
2023-03-02T08:25:57.780Z,31.63
2023-03-02T08:28:43.625Z,31.75
2023-03-02T08:31:28.957Z,32.72
2023-03-02T08:34:14.605Z,32.65
2023-03-02T08:36:59.931Z,35.65
2023-03-02T08:39:45.562Z,31.90
2023-03-02T08:42:30.948Z,32.42
2023-03-02T08:45:19.684Z,33.17
2023-03-02T08:48:05.407Z,35.03
2023-03-02T08:51:07.155Z,32.63
2023-03-02T08:53:55.514Z,30.90
2023-03-02T08:56:41.632Z,33.42
2023-03-02T08:59:27.445Z,32.60
2023-03-02T09:02:12.780Z,32.35
2023-03-02T09:04:58.738Z,31.33
2023-03-02T09:07:44.391Z,31.42
2023-03-02T09:10:29.526Z,31.17
2023-03-02T09:13:15.013Z,34.08
2023-03-02T09:16:01.343Z,35.95
2023-03-02T09:18:48.810Z,35.13
2023-03-02T09:21:35.182Z,34.88
2023-03-02T09:24:20.680Z,31.58
2023-03-02T09:27:06.431Z,30.58
2023-03-02T09:29:51.981Z,31.42
2023-03-02T09:32:37.830Z,30.85
2023-03-02T09:35:23.806Z,34.10
2023-03-02T09:38:12.860Z,34.38
2023-03-02T09:41:20.922Z,36.60
2023-03-02T09:44:13.252Z,35.45
2023-03-02T09:47:36.355Z,35.30
2023-03-02T09:53:47.300Z,34.97
2023-03-02T09:56:37.322Z,36.55
2023-03-02T09:59:45.619Z,36.42
2023-03-02T10:02:51.956Z,34.13
2023-03-02T10:05:40.926Z,32.45
2023-03-02T10:08:32.970Z,36.60
2023-03-02T10:11:25.001Z,36.95
2023-03-02T10:14:25.980Z,35.45
2023-03-02T10:17:17.111Z,34.97
2023-03-02T10:20:37.041Z,35.67
2023-03-02T10:23:49.332Z,38.30
2023-03-02T10:26:57.672Z,36.15
2023-03-02T10:29:55.369Z,36.50
2023-03-02T10:32:47.850Z,39.08
2023-03-02T10:35:34.451Z,39.58
2023-03-02T10:38:23.408Z,34.33
2023-03-02T10:41:15.775Z,34.17
2023-03-02T10:44:13.905Z,35.50
2023-03-02T10:46:59.338Z,33.53
2023-03-02T10:49:48.471Z,34.20
2023-03-02T10:52:34.474Z,31.08
2023-03-02T10:55:19.894Z,34.13
2023-03-02T10:58:21.063Z,33.40
2023-03-02T11:01:18.281Z,30.77
2023-03-02T11:04:03.711Z,29.58
2023-03-02T11:06:50.684Z,27.50
2023-03-02T11:09:36.322Z,30.70
2023-03-02T11:12:21.662Z,30.92
2023-03-02T11:15:28.397Z,33.10
2023-03-02T11:18:31.102Z,34.78
2023-03-02T11:22:06.219Z,35.72
2023-03-02T11:24:56.384Z,35.60
2023-03-02T11:27:44.793Z,36.92
2023-03-02T11:30:37.218Z,34.97
2023-03-02T11:33:30.134Z,34.53
2023-03-02T11:36:22.183Z,34.83
2023-03-02T11:39:15.572Z,33.45
2023-03-02T11:42:00.766Z,34.38
2023-03-02T11:44:48.467Z,36.47
2023-03-02T11:47:35.680Z,36.47
2023-03-02T11:50:21.511Z,34.78
2023-03-02T11:53:15.663Z,37.92
2023-03-02T11:56:01.416Z,35.83
2023-03-02T11:58:52.855Z,37.22
2023-03-02T12:01:40.278Z,40.15
2023-03-02T12:04:26.418Z,37.55
2023-03-02T12:07:22.931Z,35.15
2023-03-02T12:10:28.357Z,32.08
2023-03-02T12:13:25.483Z,32.20
2023-03-02T12:16:36.844Z,34.60
2023-03-02T12:19:38.453Z,36.38
2023-03-02T12:22:29.642Z,35.17
2023-03-02T12:25:21.084Z,36.65
2023-03-02T12:28:24.663Z,37.17
2023-03-02T12:31:13.120Z,38.08
2023-03-02T12:34:01.638Z,37.25
2023-03-02T12:36:47.949Z,37.28
2023-03-02T12:39:54.967Z,39.47
2023-03-02T12:43:05.019Z,35.67
2023-03-02T12:46:26.942Z,40.08
2023-03-02T12:49:27.410Z,34.33
2023-03-02T12:52:28.478Z,37.25
2023-03-02T12:55:19.890Z,37.50
2023-03-02T12:58:20.074Z,34.70
2023-03-02T13:01:06.488Z,39.95
2023-03-02T13:03:52.774Z,36.72
2023-03-02T13:06:39.414Z,37.47
2023-03-02T13:09:25.119Z,37.33
2023-03-02T13:12:14.168Z,34.63
2023-03-02T13:14:59.664Z,35.95
2023-03-02T13:17:52.475Z,41.25
2023-03-02T13:20:38.902Z,33.08
2023-03-02T13:23:26.201Z,36.88
2023-03-02T13:26:34.233Z,36.63
2023-03-02T13:29:20.636Z,36.42
2023-03-02T13:32:25.634Z,35.42
2023-03-02T13:35:26.852Z,35.63
2023-03-02T13:38:19.154Z,33.95
2023-03-02T13:41:05.432Z,34.15
2023-03-02T13:43:51.135Z,33.83
2023-03-02T13:46:38.380Z,34.88
2023-03-02T13:49:30.016Z,31.30
2023-03-02T13:52:29.874Z,32.75
2023-03-02T13:55:17.212Z,34.45
2023-03-02T13:58:02.912Z,31.55
2023-03-02T14:00:50.366Z,33.85
2023-03-02T14:03:36.058Z,29.95
2023-03-02T14:06:21.724Z,31.75
2023-03-02T14:09:07.320Z,34.13
2023-03-02T14:11:55.405Z,28.42
2023-03-02T14:14:41.051Z,31.83
2023-03-02T14:17:26.796Z,31.88
2023-03-02T14:20:14.788Z,31.58
2023-03-02T14:23:06.339Z,31.73
2023-03-02T14:25:53.867Z,34.78
